sensor_id;sensor_type;location;lat;lon;timestamp;temperature;humidity
66088;DHT22;52872;52.994;6.940;2023-03-01T00:01:39;1.20;99.90
66088;DHT22;52872;52.994;6.940;2023-03-01T00:04:06;1.20;99.90
66088;DHT22;52872;52.994;6.940;2023-03-01T00:06:33;1.10;99.90
66088;DHT22;52872;52.994;6.940;2023-03-01T00:09:00;1.10;99.90
66088;DHT22;52872;52.994;6.940;2023-03-01T00:11:29;1.10;99.90
66088;DHT22;52872;52.994;6.940;2023-03-01T00:13:59;1.10;99.90
66088;DHT22;52872;52.994;6.940;2023-03-01T00:16:36;1.00;99.90
66088;DHT22;52872;52.994;6.940;2023-03-01T00:19:06;1.00;99.90
66088;DHT22;52872;52.994;6.940;2023-03-01T00:21:34;1.00;99.90
66088;DHT22;52872;52.994;6.940;2023-03-01T00:24:02;1.00;99.90
66088;DHT22;52872;52.994;6.940;2023-03-01T00:26:29;1.00;99.90
66088;DHT22;52872;52.994;6.940;2023-03-01T00:28:58;1.00;99.90
66088;DHT22;52872;52.994;6.940;2023-03-01T00:31:28;1.00;99.90
66088;DHT22;52872;52.994;6.940;2023-03-01T00:33:58;1.00;99.90
66088;DHT22;52872;52.994;6.940;2023-03-01T00:36:30;0.90;99.90
66088;DHT22;52872;52.994;6.940;2023-03-01T00:38:59;0.90;99.90
66088;DHT22;52872;52.994;6.940;2023-03-01T00:41:26;0.90;99.90
66088;DHT22;52872;52.994;6.940;2023-03-01T00:43:54;0.90;99.90
66088;DHT22;52872;52.994;6.940;2023-03-01T00:46:23;0.80;99.90
66088;DHT22;52872;52.994;6.940;2023-03-01T00:48:50;0.80;99.90
66088;DHT22;52872;52.994;6.940;2023-03-01T00:51:20;0.80;99.90
66088;DHT22;52872;52.994;6.940;2023-03-01T00:53:50;0.80;99.90
66088;DHT22;52872;52.994;6.940;2023-03-01T00:56:19;0.80;99.90
66088;DHT22;52872;52.994;6.940;2023-03-01T00:58:46;0.80;99.90
66088;DHT22;52872;52.994;6.940;2023-03-01T01:01:16;0.70;99.90
66088;DHT22;52872;52.994;6.940;2023-03-01T01:03:48;0.70;99.90
66088;DHT22;52872;52.994;6.940;2023-03-01T01:06:21;0.70;99.90
66088;DHT22;52872;52.994;6.940;2023-03-01T01:08:49;0.70;99.90
66088;DHT22;52872;52.994;6.940;2023-03-01T01:11:17;0.70;99.90
66088;DHT22;52872;52.994;6.940;2023-03-01T01:13:45;0.60;99.90
66088;DHT22;52872;52.994;6.940;2023-03-01T01:16:13;0.60;99.90
66088;DHT22;52872;52.994;6.940;2023-03-01T01:18:41;0.60;99.90
66088;DHT22;52872;52.994;6.940;2023-03-01T01:21:11;0.60;99.90
66088;DHT22;52872;52.994;6.940;2023-03-01T01:23:39;0.60;99.90
66088;DHT22;52872;52.994;6.940;2023-03-01T01:26:11;0.60;99.90
66088;DHT22;52872;52.994;6.940;2023-03-01T01:28:39;0.60;99.90
66088;DHT22;52872;52.994;6.940;2023-03-01T01:31:06;0.60;99.90
66088;DHT22;52872;52.994;6.940;2023-03-01T01:33:34;0.50;99.90
66088;DHT22;52872;52.994;6.940;2023-03-01T01:36:01;0.50;99.90
66088;DHT22;52872;52.994;6.940;2023-03-01T01:38:29;0.50;99.90
66088;DHT22;52872;52.994;6.940;2023-03-01T01:40:56;0.50;99.90
66088;DHT22;52872;52.994;6.940;2023-03-01T01:43:33;0.50;99.90
66088;DHT22;52872;52.994;6.940;2023-03-01T01:52:00;0.50;99.90
66088;DHT22;52872;52.994;6.940;2023-03-01T01:54:35;0.50;99.90
66088;DHT22;52872;52.994;6.940;2023-03-01T01:57:17;0.50;99.90
66088;DHT22;52872;52.994;6.940;2023-03-01T01:59:50;0.50;99.90
66088;DHT22;52872;52.994;6.940;2023-03-01T02:02:19;0.40;99.90
66088;DHT22;52872;52.994;6.940;2023-03-01T02:04:48;0.40;99.90
66088;DHT22;52872;52.994;6.940;2023-03-01T02:07:19;0.30;99.90
66088;DHT22;52872;52.994;6.940;2023-03-01T02:09:49;0.30;99.90
66088;DHT22;52872;52.994;6.940;2023-03-01T02:12:20;0.30;99.90
66088;DHT22;52872;52.994;6.940;2023-03-01T02:14:48;0.30;99.90
66088;DHT22;52872;52.994;6.940;2023-03-01T02:17:24;0.30;99.90
66088;DHT22;52872;52.994;6.940;2023-03-01T02:22:46;0.20;99.90
66088;DHT22;52872;52.994;6.940;2023-03-01T02:28:08;0.20;99.90
66088;DHT22;52872;52.994;6.940;2023-03-01T02:30:37;0.20;99.90
66088;DHT22;52872;52.994;6.940;2023-03-01T02:33:26;0.20;99.90
66088;DHT22;52872;52.994;6.940;2023-03-01T02:35:54;0.10;99.90
66088;DHT22;52872;52.994;6.940;2023-03-01T02:38:22;0.10;99.90
66088;DHT22;52872;52.994;6.940;2023-03-01T02:40:50;0.10;99.90
66088;DHT22;52872;52.994;6.940;2023-03-01T02:43:19;0.10;99.90
66088;DHT22;52872;52.994;6.940;2023-03-01T02:45:52;0.10;99.90
66088;DHT22;52872;52.994;6.940;2023-03-01T02:48:20;0.10;99.90
66088;DHT22;52872;52.994;6.940;2023-03-01T02:51:04;0.10;99.90
66088;DHT22;52872;52.994;6.940;2023-03-01T02:56:16;0.10;99.90
66088;DHT22;52872;52.994;6.940;2023-03-01T02:58:44;0.00;99.90
66088;DHT22;52872;52.994;6.940;2023-03-01T03:01:15;0.00;99.90
66088;DHT22;52872;52.994;6.940;2023-03-01T03:03:42;-0.10;99.90
66088;DHT22;52872;52.994;6.940;2023-03-01T03:06:10;-0.10;99.90
66088;DHT22;52872;52.994;6.940;2023-03-01T03:08:37;-0.10;99.90
66088;DHT22;52872;52.994;6.940;2023-03-01T03:11:04;-0.10;99.90
66088;DHT22;52872;52.994;6.940;2023-03-01T03:13:31;-0.20;99.90
66088;DHT22;52872;52.994;6.940;2023-03-01T03:15:58;-0.20;99.90
66088;DHT22;52872;52.994;6.940;2023-03-01T03:18:26;-0.20;99.90
66088;DHT22;52872;52.994;6.940;2023-03-01T03:20:53;-0.20;99.90
66088;DHT22;52872;52.994;6.940;2023-03-01T03:23:21;-0.20;99.90
66088;DHT22;52872;52.994;6.940;2023-03-01T03:25:51;-0.20;99.90
66088;DHT22;52872;52.994;6.940;2023-03-01T03:28:18;-0.20;99.90
66088;DHT22;52872;52.994;6.940;2023-03-01T03:30:46;-0.20;99.90
66088;DHT22;52872;52.994;6.940;2023-03-01T03:33:13;-0.20;99.90
66088;DHT22;52872;52.994;6.940;2023-03-01T03:35:46;-0.20;99.90
66088;DHT22;52872;52.994;6.940;2023-03-01T03:38:16;-0.20;99.90
66088;DHT22;52872;52.994;6.940;2023-03-01T03:40:59;-0.20;99.90
66088;DHT22;52872;52.994;6.940;2023-03-01T03:43:31;-0.20;99.90
66088;DHT22;52872;52.994;6.940;2023-03-01T03:45:59;-0.30;99.90
66088;DHT22;52872;52.994;6.940;2023-03-01T03:48:26;-0.30;99.90
66088;DHT22;52872;52.994;6.940;2023-03-01T03:50:55;-0.30;99.90
66088;DHT22;52872;52.994;6.940;2023-03-01T03:53:23;-0.30;99.90
66088;DHT22;52872;52.994;6.940;2023-03-01T03:55:51;-0.30;99.90
66088;DHT22;52872;52.994;6.940;2023-03-01T03:58:20;-0.30;99.90
66088;DHT22;52872;52.994;6.940;2023-03-01T04:00:51;-0.30;99.90
66088;DHT22;52872;52.994;6.940;2023-03-01T04:03:19;-0.30;99.90
66088;DHT22;52872;52.994;6.940;2023-03-01T04:05:47;-0.40;99.90
66088;DHT22;52872;52.994;6.940;2023-03-01T04:08:14;-0.40;99.90
66088;DHT22;52872;52.994;6.940;2023-03-01T04:10:46;-0.40;99.90
66088;DHT22;52872;52.994;6.940;2023-03-01T04:13:17;-0.40;99.90
66088;DHT22;52872;52.994;6.940;2023-03-01T04:15:50;-0.50;99.90
66088;DHT22;52872;52.994;6.940;2023-03-01T04:18:19;-0.50;99.90
66088;DHT22;52872;52.994;6.940;2023-03-01T04:20:46;-0.50;99.90
66088;DHT22;52872;52.994;6.940;2023-03-01T04:23:16;-0.50;99.90
66088;DHT22;52872;52.994;6.940;2023-03-01T04:25:50;-0.60;99.90
66088;DHT22;52872;52.994;6.940;2023-03-01T04:30:55;-0.60;99.90
66088;DHT22;52872;52.994;6.940;2023-03-01T04:33:23;-0.60;99.90
66088;DHT22;52872;52.994;6.940;2023-03-01T04:35:50;-0.60;99.90
66088;DHT22;52872;52.994;6.940;2023-03-01T04:38:19;-0.60;99.90
66088;DHT22;52872;52.994;6.940;2023-03-01T04:40:46;-0.70;99.90
66088;DHT22;52872;52.994;6.940;2023-03-01T04:43:14;-0.60;99.90
66088;DHT22;52872;52.994;6.940;2023-03-01T04:45:41;-0.70;99.90
66088;DHT22;52872;52.994;6.940;2023-03-01T04:48:08;-0.70;99.90
66088;DHT22;52872;52.994;6.940;2023-03-01T04:50:35;-0.70;99.90
66088;DHT22;52872;52.994;6.940;2023-03-01T04:53:02;-0.60;99.90
66088;DHT22;52872;52.994;6.940;2023-03-01T04:55:29;-0.70;99.90
66088;DHT22;52872;52.994;6.940;2023-03-01T04:57:56;-0.70;99.90
66088;DHT22;52872;52.994;6.940;2023-03-01T05:00:23;-0.70;99.90
66088;DHT22;52872;52.994;6.940;2023-03-01T05:02:54;-0.70;99.90
66088;DHT22;52872;52.994;6.940;2023-03-01T05:05:33;-0.70;99.90
66088;DHT22;52872;52.994;6.940;2023-03-01T05:08:07;-0.70;99.90
66088;DHT22;52872;52.994;6.940;2023-03-01T05:10:35;-0.70;99.90
66088;DHT22;52872;52.994;6.940;2023-03-01T05:13:03;-0.70;99.90
66088;DHT22;52872;52.994;6.940;2023-03-01T05:15:31;-0.80;99.90
66088;DHT22;52872;52.994;6.940;2023-03-01T05:18:00;-0.70;99.90
66088;DHT22;52872;52.994;6.940;2023-03-01T05:20:28;-0.80;99.90
66088;DHT22;52872;52.994;6.940;2023-03-01T05:22:58;-0.70;99.90
66088;DHT22;52872;52.994;6.940;2023-03-01T05:25:26;-0.70;99.90
66088;DHT22;52872;52.994;6.940;2023-03-01T05:27:53;-0.80;99.90
66088;DHT22;52872;52.994;6.940;2023-03-01T05:30:20;-0.80;99.90
66088;DHT22;52872;52.994;6.940;2023-03-01T05:32:49;-0.80;99.90
66088;DHT22;52872;52.994;6.940;2023-03-01T05:35:22;-0.80;99.90
66088;DHT22;52872;52.994;6.940;2023-03-01T05:37:50;-0.80;99.90
66088;DHT22;52872;52.994;6.940;2023-03-01T05:40:22;-0.80;99.90
66088;DHT22;52872;52.994;6.940;2023-03-01T05:42:53;-0.80;99.90
66088;DHT22;52872;52.994;6.940;2023-03-01T05:45:22;-0.90;99.90
66088;DHT22;52872;52.994;6.940;2023-03-01T05:47:50;-0.90;99.90
66088;DHT22;52872;52.994;6.940;2023-03-01T05:50:23;-0.80;99.90
66088;DHT22;52872;52.994;6.940;2023-03-01T05:52:52;-0.80;99.90
66088;DHT22;52872;52.994;6.940;2023-03-01T05:55:23;-0.80;99.90
66088;DHT22;52872;52.994;6.940;2023-03-01T05:57:50;-0.80;99.90
66088;DHT22;52872;52.994;6.940;2023-03-01T06:00:19;-0.90;99.90
66088;DHT22;52872;52.994;6.940;2023-03-01T06:02:48;-0.90;99.90
66088;DHT22;52872;52.994;6.940;2023-03-01T06:05:15;-0.90;99.90
66088;DHT22;52872;52.994;6.940;2023-03-01T06:07:42;-0.90;99.90
66088;DHT22;52872;52.994;6.940;2023-03-01T06:10:11;-0.90;99.90
66088;DHT22;52872;52.994;6.940;2023-03-01T06:12:40;-0.90;99.90
66088;DHT22;52872;52.994;6.940;2023-03-01T06:15:07;-0.90;99.90
66088;DHT22;52872;52.994;6.940;2023-03-01T06:17:37;-1.00;99.90
66088;DHT22;52872;52.994;6.940;2023-03-01T06:20:07;-0.90;99.90
66088;DHT22;52872;52.994;6.940;2023-03-01T06:22:35;-0.90;99.90
66088;DHT22;52872;52.994;6.940;2023-03-01T06:25:02;-0.90;99.90
66088;DHT22;52872;52.994;6.940;2023-03-01T06:27:29;-0.90;99.90
66088;DHT22;52872;52.994;6.940;2023-03-01T06:29:56;-0.90;99.90
66088;DHT22;52872;52.994;6.940;2023-03-01T06:32:23;-0.90;99.90
66088;DHT22;52872;52.994;6.940;2023-03-01T06:34:50;-0.90;99.90
66088;DHT22;52872;52.994;6.940;2023-03-01T06:37:17;-0.90;99.90
66088;DHT22;52872;52.994;6.940;2023-03-01T06:39:44;-0.80;99.90
66088;DHT22;52872;52.994;6.940;2023-03-01T06:42:11;-0.80;99.90
66088;DHT22;52872;52.994;6.940;2023-03-01T06:44:38;-0.70;99.90
66088;DHT22;52872;52.994;6.940;2023-03-01T06:47:05;-0.60;99.90
66088;DHT22;52872;52.994;6.940;2023-03-01T06:49:32;-0.50;99.90
66088;DHT22;52872;52.994;6.940;2023-03-01T06:51:59;-0.40;99.90
66088;DHT22;52872;52.994;6.940;2023-03-01T06:54:26;-0.30;99.90
66088;DHT22;52872;52.994;6.940;2023-03-01T06:56:53;-0.20;99.90
66088;DHT22;52872;52.994;6.940;2023-03-01T06:59:20;-0.10;99.90
66088;DHT22;52872;52.994;6.940;2023-03-01T07:01:47;0.00;99.90
66088;DHT22;52872;52.994;6.940;2023-03-01T07:04:14;0.20;99.90
66088;DHT22;52872;52.994;6.940;2023-03-01T07:06:41;0.30;99.90
66088;DHT22;52872;52.994;6.940;2023-03-01T07:09:08;0.40;99.90
66088;DHT22;52872;52.994;6.940;2023-03-01T07:11:35;0.50;99.90
66088;DHT22;52872;52.994;6.940;2023-03-01T07:14:02;0.70;99.90
66088;DHT22;52872;52.994;6.940;2023-03-01T07:16:29;0.80;99.90
66088;DHT22;52872;52.994;6.940;2023-03-01T07:18:57;0.90;99.90
66088;DHT22;52872;52.994;6.940;2023-03-01T07:21:25;1.10;99.90
66088;DHT22;52872;52.994;6.940;2023-03-01T07:23:52;1.30;99.90
66088;DHT22;52872;52.994;6.940;2023-03-01T07:26:19;1.50;99.90
66088;DHT22;52872;52.994;6.940;2023-03-01T07:28:46;1.70;99.90
66088;DHT22;52872;52.994;6.940;2023-03-01T07:31:13;2.00;99.90
66088;DHT22;52872;52.994;6.940;2023-03-01T07:33:40;2.20;99.90
66088;DHT22;52872;52.994;6.940;2023-03-01T07:36:07;2.50;99.90
66088;DHT22;52872;52.994;6.940;2023-03-01T07:38:35;2.70;99.90
66088;DHT22;52872;52.994;6.940;2023-03-01T07:41:03;2.90;99.90
66088;DHT22;52872;52.994;6.940;2023-03-01T07:43:31;3.00;99.90
66088;DHT22;52872;52.994;6.940;2023-03-01T07:46:02;3.20;99.90
66088;DHT22;52872;52.994;6.940;2023-03-01T07:48:30;3.30;99.90
66088;DHT22;52872;52.994;6.940;2023-03-01T07:50:59;3.50;99.90
66088;DHT22;52872;52.994;6.940;2023-03-01T07:53:26;3.70;99.90
66088;DHT22;52872;52.994;6.940;2023-03-01T07:56:09;3.80;99.90
66088;DHT22;52872;52.994;6.940;2023-03-01T07:58:39;3.90;99.90
66088;DHT22;52872;52.994;6.940;2023-03-01T08:01:08;3.90;99.90
66088;DHT22;52872;52.994;6.940;2023-03-01T08:03:35;4.10;99.90
66088;DHT22;52872;52.994;6.940;2023-03-01T08:06:05;4.30;99.90
66088;DHT22;52872;52.994;6.940;2023-03-01T08:08:33;4.60;99.90
66088;DHT22;52872;52.994;6.940;2023-03-01T08:11:02;4.70;99.90
66088;DHT22;52872;52.994;6.940;2023-03-01T08:13:30;4.90;99.90
66088;DHT22;52872;52.994;6.940;2023-03-01T08:16:06;5.20;99.90
66088;DHT22;52872;52.994;6.940;2023-03-01T08:18:34;5.50;99.90
66088;DHT22;52872;52.994;6.940;2023-03-01T08:21:03;5.80;99.90
66088;DHT22;52872;52.994;6.940;2023-03-01T08:23:30;6.10;99.90
66088;DHT22;52872;52.994;6.940;2023-03-01T08:26:07;6.40;99.90
66088;DHT22;52872;52.994;6.940;2023-03-01T08:28:35;6.80;99.90
66088;DHT22;52872;52.994;6.940;2023-03-01T08:31:02;6.90;99.90
66088;DHT22;52872;52.994;6.940;2023-03-01T08:33:29;7.00;99.90
66088;DHT22;52872;52.994;6.940;2023-03-01T08:36:06;7.10;99.90
66088;DHT22;52872;52.994;6.940;2023-03-01T08:38:34;7.10;99.90
66088;DHT22;52872;52.994;6.940;2023-03-01T08:41:02;6.90;99.90
66088;DHT22;52872;52.994;6.940;2023-03-01T08:43:30;6.70;99.90
66088;DHT22;52872;52.994;6.940;2023-03-01T08:45:57;6.60;99.90
66088;DHT22;52872;52.994;6.940;2023-03-01T08:48:27;6.30;99.90
66088;DHT22;52872;52.994;6.940;2023-03-01T08:50:54;6.10;99.90
66088;DHT22;52872;52.994;6.940;2023-03-01T08:53:21;6.00;99.90
66088;DHT22;52872;52.994;6.940;2023-03-01T08:55:48;5.80;99.90
66088;DHT22;52872;52.994;6.940;2023-03-01T08:58:16;5.60;99.90
66088;DHT22;52872;52.994;6.940;2023-03-01T09:00:43;5.50;99.90
66088;DHT22;52872;52.994;6.940;2023-03-01T09:03:10;5.30;99.90
66088;DHT22;52872;52.994;6.940;2023-03-01T09:05:37;5.10;99.90
66088;DHT22;52872;52.994;6.940;2023-03-01T09:08:05;5.00;99.90
66088;DHT22;52872;52.994;6.940;2023-03-01T09:10:32;4.90;99.90
66088;DHT22;52872;52.994;6.940;2023-03-01T09:12:58;4.80;99.90
66088;DHT22;52872;52.994;6.940;2023-03-01T09:15:25;4.70;99.90
66088;DHT22;52872;52.994;6.940;2023-03-01T09:17:52;4.60;99.90
66088;DHT22;52872;52.994;6.940;2023-03-01T09:20:19;4.40;99.90
66088;DHT22;52872;52.994;6.940;2023-03-01T09:22:46;4.30;99.90
66088;DHT22;52872;52.994;6.940;2023-03-01T09:25:14;4.20;99.90
66088;DHT22;52872;52.994;6.940;2023-03-01T09:27:41;4.10;99.90
66088;DHT22;52872;52.994;6.940;2023-03-01T09:30:09;4.00;99.90
66088;DHT22;52872;52.994;6.940;2023-03-01T09:32:36;4.00;99.90
66088;DHT22;52872;52.994;6.940;2023-03-01T09:35:03;4.00;99.90
66088;DHT22;52872;52.994;6.940;2023-03-01T09:37:33;4.00;99.90
66088;DHT22;52872;52.994;6.940;2023-03-01T09:40:02;4.20;99.90
66088;DHT22;52872;52.994;6.940;2023-03-01T09:42:34;4.30;99.90
66088;DHT22;52872;52.994;6.940;2023-03-01T09:45:18;4.40;99.90
66088;DHT22;52872;52.994;6.940;2023-03-01T09:47:47;4.40;99.90
66088;DHT22;52872;52.994;6.940;2023-03-01T09:50:20;4.40;99.90
66088;DHT22;52872;52.994;6.940;2023-03-01T09:52:50;4.50;99.90
66088;DHT22;52872;52.994;6.940;2023-03-01T09:55:37;4.50;99.90
66088;DHT22;52872;52.994;6.940;2023-03-01T10:03:47;4.80;99.90
66088;DHT22;52872;52.994;6.940;2023-03-01T10:06:22;4.80;99.90
66088;DHT22;52872;52.994;6.940;2023-03-01T10:09:02;4.90;99.90
66088;DHT22;52872;52.994;6.940;2023-03-01T10:11:37;5.00;99.90
66088;DHT22;52872;52.994;6.940;2023-03-01T10:19:46;5.40;99.90
66088;DHT22;52872;52.994;6.940;2023-03-01T10:22:18;5.50;99.90
66088;DHT22;52872;52.994;6.940;2023-03-01T10:24:48;5.60;99.90
66088;DHT22;52872;52.994;6.940;2023-03-01T10:32:58;5.70;99.90
66088;DHT22;52872;52.994;6.940;2023-03-01T10:35:32;5.70;99.90
66088;DHT22;52872;52.994;6.940;2023-03-01T10:38:09;5.70;99.90
66088;DHT22;52872;52.994;6.940;2023-03-01T10:40:56;5.80;99.90
66088;DHT22;52872;52.994;6.940;2023-03-01T10:43:31;5.80;99.90
66088;DHT22;52872;52.994;6.940;2023-03-01T10:45:59;5.80;99.90
66088;DHT22;52872;52.994;6.940;2023-03-01T10:48:26;5.90;99.90
66088;DHT22;52872;52.994;6.940;2023-03-01T10:53:57;6.10;99.90
66088;DHT22;52872;52.994;6.940;2023-03-01T10:56:24;6.20;99.90
66088;DHT22;52872;52.994;6.940;2023-03-01T10:59:00;6.30;99.90
66088;DHT22;52872;52.994;6.940;2023-03-01T11:01:33;6.50;99.90
66088;DHT22;52872;52.994;6.940;2023-03-01T11:06:33;6.60;99.90
66088;DHT22;52872;52.994;6.940;2023-03-01T11:11:42;6.80;99.90
66088;DHT22;52872;52.994;6.940;2023-03-01T11:14:24;6.80;99.90
66088;DHT22;52872;52.994;6.940;2023-03-01T11:19:38;6.90;99.90
66088;DHT22;52872;52.994;6.940;2023-03-01T11:22:12;6.90;99.90
66088;DHT22;52872;52.994;6.940;2023-03-01T11:24:52;7.00;99.90
66088;DHT22;52872;52.994;6.940;2023-03-01T11:27:38;7.00;99.90
66088;DHT22;52872;52.994;6.940;2023-03-01T11:30:16;7.10;99.90
66088;DHT22;52872;52.994;6.940;2023-03-01T11:33:03;7.20;99.90
66088;DHT22;52872;52.994;6.940;2023-03-01T11:35:32;7.30;99.90
66088;DHT22;52872;52.994;6.940;2023-03-01T11:43:59;7.60;99.90
66088;DHT22;52872;52.994;6.940;2023-03-01T11:52:11;7.70;99.90
66088;DHT22;52872;52.994;6.940;2023-03-01T11:57:35;7.80;99.90
66088;DHT22;52872;52.994;6.940;2023-03-01T12:12:11;8.20;99.80
66088;DHT22;52872;52.994;6.940;2023-03-01T12:18:01;8.30;99.80
66088;DHT22;52872;52.994;6.940;2023-03-01T12:26:29;8.30;99.90
66088;DHT22;52872;52.994;6.940;2023-03-01T12:45:02;8.30;99.60
66088;DHT22;52872;52.994;6.940;2023-03-01T12:50:24;8.40;99.60
66088;DHT22;52872;52.994;6.940;2023-03-01T12:52:55;8.50;99.50
66088;DHT22;52872;52.994;6.940;2023-03-01T12:55:29;8.50;99.10
66088;DHT22;52872;52.994;6.940;2023-03-01T12:58:20;8.50;98.80
66088;DHT22;52872;52.994;6.940;2023-03-01T13:01:53;8.60;98.80
66088;DHT22;52872;52.994;6.940;2023-03-01T13:04:37;8.60;99.10
66088;DHT22;52872;52.994;6.940;2023-03-01T13:20:34;8.70;99.20
66088;DHT22;52872;52.994;6.940;2023-03-01T13:28:38;8.80;98.80
66088;DHT22;52872;52.994;6.940;2023-03-01T13:31:10;8.90;98.80
66088;DHT22;52872;52.994;6.940;2023-03-01T13:33:48;8.90;98.90
66088;DHT22;52872;52.994;6.940;2023-03-01T13:39:03;9.10;98.50
66088;DHT22;52872;52.994;6.940;2023-03-01T13:49:45;9.10;97.90
66088;DHT22;52872;52.994;6.940;2023-03-01T13:58:05;9.20;97.60
66088;DHT22;52872;52.994;6.940;2023-03-01T14:00:40;9.20;98.10
66088;DHT22;52872;52.994;6.940;2023-03-01T14:05:41;9.20;97.90
66088;DHT22;52872;52.994;6.940;2023-03-01T14:08:23;9.20;97.70
66088;DHT22;52872;52.994;6.940;2023-03-01T14:19:26;9.20;98.60
66088;DHT22;52872;52.994;6.940;2023-03-01T14:22:06;9.20;98.60
66088;DHT22;52872;52.994;6.940;2023-03-01T14:25:05;9.20;98.20
66088;DHT22;52872;52.994;6.940;2023-03-01T14:27:36;9.30;98.40
66088;DHT22;52872;52.994;6.940;2023-03-01T14:30:41;9.20;98.30
66088;DHT22;52872;52.994;6.940;2023-03-01T14:33:37;9.20;98.40
66088;DHT22;52872;52.994;6.940;2023-03-01T14:36:10;9.30;98.50
66088;DHT22;52872;52.994;6.940;2023-03-01T14:41:35;9.30;98.50
66088;DHT22;52872;52.994;6.940;2023-03-01T14:44:06;9.30;98.60
66088;DHT22;52872;52.994;6.940;2023-03-01T14:46:36;9.40;98.60
66088;DHT22;52872;52.994;6.940;2023-03-01T14:49:16;9.40;98.70
66088;DHT22;52872;52.994;6.940;2023-03-01T14:51:57;9.40;98.90
66088;DHT22;52872;52.994;6.940;2023-03-01T14:54:41;9.40;98.90
66088;DHT22;52872;52.994;6.940;2023-03-01T14:57:19;9.50;98.80
66088;DHT22;52872;52.994;6.940;2023-03-01T14:59:46;9.50;98.80
66088;DHT22;52872;52.994;6.940;2023-03-01T15:02:18;9.50;98.80
66088;DHT22;52872;52.994;6.940;2023-03-01T15:04:57;9.50;98.90
66088;DHT22;52872;52.994;6.940;2023-03-01T15:07:30;9.60;98.60
66088;DHT22;52872;52.994;6.940;2023-03-01T15:09:59;9.40;98.40
66088;DHT22;52872;52.994;6.940;2023-03-01T15:14:59;9.40;98.80
66088;DHT22;52872;52.994;6.940;2023-03-01T15:17:37;9.40;99.00
66088;DHT22;52872;52.994;6.940;2023-03-01T15:20:15;9.50;99.20
66088;DHT22;52872;52.994;6.940;2023-03-01T15:22:44;9.50;99.30
66088;DHT22;52872;52.994;6.940;2023-03-01T15:25:19;9.40;99.60
66088;DHT22;52872;52.994;6.940;2023-03-01T15:27:47;9.40;99.70
66088;DHT22;52872;52.994;6.940;2023-03-01T15:30:24;9.40;99.70
66088;DHT22;52872;52.994;6.940;2023-03-01T15:33:17;9.50;99.80
66088;DHT22;52872;52.994;6.940;2023-03-01T15:35:50;9.40;99.70
66088;DHT22;52872;52.994;6.940;2023-03-01T15:38:33;9.30;99.80
66088;DHT22;52872;52.994;6.940;2023-03-01T15:41:04;9.30;99.90
66088;DHT22;52872;52.994;6.940;2023-03-01T15:43:47;9.30;99.90
66088;DHT22;52872;52.994;6.940;2023-03-01T15:46:21;9.40;99.90
66088;DHT22;52872;52.994;6.940;2023-03-01T15:51:41;9.30;99.90
66088;DHT22;52872;52.994;6.940;2023-03-01T15:54:18;9.30;99.90
66088;DHT22;52872;52.994;6.940;2023-03-01T15:56:46;9.30;99.90
66088;DHT22;52872;52.994;6.940;2023-03-01T15:59:13;9.30;99.90
66088;DHT22;52872;52.994;6.940;2023-03-01T16:01:41;9.20;99.90
66088;DHT22;52872;52.994;6.940;2023-03-01T16:04:10;9.10;99.90
66088;DHT22;52872;52.994;6.940;2023-03-01T16:06:40;9.10;99.90
66088;DHT22;52872;52.994;6.940;2023-03-01T16:09:10;9.10;99.90
66088;DHT22;52872;52.994;6.940;2023-03-01T16:11:39;9.10;99.90
66088;DHT22;52872;52.994;6.940;2023-03-01T16:14:08;9.00;99.90
66088;DHT22;52872;52.994;6.940;2023-03-01T16:16:35;9.00;99.90
66088;DHT22;52872;52.994;6.940;2023-03-01T16:19:03;8.90;99.90
66088;DHT22;52872;52.994;6.940;2023-03-01T16:21:30;8.90;99.90
66088;DHT22;52872;52.994;6.940;2023-03-01T16:23:57;8.90;99.90
66088;DHT22;52872;52.994;6.940;2023-03-01T16:26:24;8.80;99.90
66088;DHT22;52872;52.994;6.940;2023-03-01T16:28:54;8.80;99.90
66088;DHT22;52872;52.994;6.940;2023-03-01T16:31:23;8.80;99.90
66088;DHT22;52872;52.994;6.940;2023-03-01T16:33:54;8.70;99.90
66088;DHT22;52872;52.994;6.940;2023-03-01T16:36:22;8.60;99.90
66088;DHT22;52872;52.994;6.940;2023-03-01T16:38:59;8.60;99.90
66088;DHT22;52872;52.994;6.940;2023-03-01T16:41:27;8.50;99.90
66088;DHT22;52872;52.994;6.940;2023-03-01T16:43:55;8.50;99.90
66088;DHT22;52872;52.994;6.940;2023-03-01T16:46:26;8.40;99.90
66088;DHT22;52872;52.994;6.940;2023-03-01T16:48:54;8.30;99.90
66088;DHT22;52872;52.994;6.940;2023-03-01T16:51:22;8.20;99.90
66088;DHT22;52872;52.994;6.940;2023-03-01T16:53:50;8.10;99.90
66088;DHT22;52872;52.994;6.940;2023-03-01T16:56:18;8.10;99.90
66088;DHT22;52872;52.994;6.940;2023-03-01T16:58:45;8.00;99.90
66088;DHT22;52872;52.994;6.940;2023-03-01T17:01:17;7.90;99.90
66088;DHT22;52872;52.994;6.940;2023-03-01T17:03:46;7.80;99.90
66088;DHT22;52872;52.994;6.940;2023-03-01T17:06:16;7.70;99.90
66088;DHT22;52872;52.994;6.940;2023-03-01T17:08:43;7.60;99.90
66088;DHT22;52872;52.994;6.940;2023-03-01T17:11:13;7.50;99.90
66088;DHT22;52872;52.994;6.940;2023-03-01T17:13:41;7.40;99.90
66088;DHT22;52872;52.994;6.940;2023-03-01T17:16:11;7.40;99.90
66088;DHT22;52872;52.994;6.940;2023-03-01T17:18:38;7.30;99.90
66088;DHT22;52872;52.994;6.940;2023-03-01T17:21:07;7.20;99.90
66088;DHT22;52872;52.994;6.940;2023-03-01T17:23:36;7.10;99.90
66088;DHT22;52872;52.994;6.940;2023-03-01T17:26:03;7.00;99.90
66088;DHT22;52872;52.994;6.940;2023-03-01T17:28:31;6.90;99.90
66088;DHT22;52872;52.994;6.940;2023-03-01T17:31:00;6.80;99.90
66088;DHT22;52872;52.994;6.940;2023-03-01T17:33:28;6.80;99.90
66088;DHT22;52872;52.994;6.940;2023-03-01T17:35:58;6.70;99.90
66088;DHT22;52872;52.994;6.940;2023-03-01T17:38:25;6.60;99.90
66088;DHT22;52872;52.994;6.940;2023-03-01T17:40:52;6.60;99.90
66088;DHT22;52872;52.994;6.940;2023-03-01T17:43:19;6.60;99.90
66088;DHT22;52872;52.994;6.940;2023-03-01T17:45:46;6.50;99.90
66088;DHT22;52872;52.994;6.940;2023-03-01T17:48:15;6.50;99.90
66088;DHT22;52872;52.994;6.940;2023-03-01T17:50:43;6.40;99.90
66088;DHT22;52872;52.994;6.940;2023-03-01T17:53:10;6.40;99.90
66088;DHT22;52872;52.994;6.940;2023-03-01T17:55:39;6.40;99.90
66088;DHT22;52872;52.994;6.940;2023-03-01T17:58:07;6.40;99.90
66088;DHT22;52872;52.994;6.940;2023-03-01T18:00:35;6.30;99.90
66088;DHT22;52872;52.994;6.940;2023-03-01T18:03:04;6.30;99.90
66088;DHT22;52872;52.994;6.940;2023-03-01T18:05:34;6.30;99.90
66088;DHT22;52872;52.994;6.940;2023-03-01T18:08:02;6.20;99.90
66088;DHT22;52872;52.994;6.940;2023-03-01T18:10:30;6.10;99.90
66088;DHT22;52872;52.994;6.940;2023-03-01T18:12:57;6.10;99.90
66088;DHT22;52872;52.994;6.940;2023-03-01T18:15:24;6.10;99.90
66088;DHT22;52872;52.994;6.940;2023-03-01T18:17:51;6.00;99.90
66088;DHT22;52872;52.994;6.940;2023-03-01T18:20:18;5.90;99.90
66088;DHT22;52872;52.994;6.940;2023-03-01T18:22:45;5.90;99.90
66088;DHT22;52872;52.994;6.940;2023-03-01T18:25:12;5.80;99.90
66088;DHT22;52872;52.994;6.940;2023-03-01T18:27:39;5.80;99.90
66088;DHT22;52872;52.994;6.940;2023-03-01T18:30:07;5.70;99.90
66088;DHT22;52872;52.994;6.940;2023-03-01T18:32:34;5.60;99.90
66088;DHT22;52872;52.994;6.940;2023-03-01T18:35:01;5.50;99.90
66088;DHT22;52872;52.994;6.940;2023-03-01T18:37:28;5.50;99.90